createdAt,value
2019-05-18T00:01:25.618Z,33.17
2019-05-18T00:03:57.013Z,34.77
2019-05-18T00:06:28.099Z,33.67
2019-05-18T00:08:59.228Z,34.13
2019-05-18T00:11:30.268Z,36.57
2019-05-18T00:14:01.433Z,36.57
2019-05-18T00:16:32.512Z,35.47
2019-05-18T00:19:03.691Z,34.93
2019-05-18T00:21:34.799Z,38.10
2019-05-18T00:24:05.886Z,37.30
2019-05-18T00:26:37.074Z,35.20
2019-05-18T00:29:08.210Z,34.43
2019-05-18T00:31:39.406Z,30.73
2019-05-18T00:34:10.495Z,34.87
2019-05-18T00:36:41.662Z,32.63
2019-05-18T00:39:13.856Z,32.47
2019-05-18T00:41:45.585Z,37.27
2019-05-18T00:44:16.823Z,38.90
2019-05-18T00:46:48.038Z,40.17
2019-05-18T00:49:19.178Z,33.10
2019-05-18T00:51:50.272Z,32.43
2019-05-18T00:54:21.512Z,32.87
2019-05-18T00:56:52.746Z,34.57
2019-05-18T00:59:23.811Z,35.33
2019-05-18T01:01:54.865Z,36.43
2019-05-18T01:04:25.943Z,35.13
2019-05-18T01:06:57.041Z,37.03
2019-05-18T01:09:28.200Z,37.17
2019-05-18T01:11:59.267Z,36.63
2019-05-18T01:14:30.379Z,37.77
2019-05-18T01:17:01.466Z,38.93
2019-05-18T01:19:32.597Z,40.93
2019-05-18T01:22:03.717Z,42.40
2019-05-18T01:24:34.807Z,42.53
2019-05-18T01:27:05.880Z,41.37
2019-05-18T01:29:36.965Z,39.97
2019-05-18T01:32:08.147Z,37.63
2019-05-18T01:34:40.291Z,40.03
2019-05-18T01:37:11.436Z,40.67
2019-05-18T01:39:42.591Z,40.13
2019-05-18T01:42:13.676Z,44.60
2019-05-18T01:44:44.741Z,40.83
2019-05-18T01:47:15.862Z,39.90
2019-05-18T01:49:46.968Z,43.97
2019-05-18T01:52:18.125Z,40.73
2019-05-18T01:54:49.236Z,38.97
2019-05-18T01:57:20.377Z,42.43
2019-05-18T01:59:51.518Z,39.50
2019-05-18T02:02:22.586Z,41.67
2019-05-18T02:04:53.742Z,39.13
2019-05-18T02:07:24.818Z,34.53
2019-05-18T02:09:56.977Z,38.90
2019-05-18T02:12:28.059Z,34.73
2019-05-18T02:14:59.208Z,32.50
2019-05-18T02:17:30.284Z,33.00
2019-05-18T02:20:01.377Z,30.40
2019-05-18T02:22:33.617Z,27.97
2019-05-18T02:25:05.606Z,27.27
2019-05-18T02:27:36.679Z,26.73
2019-05-18T02:30:09.071Z,36.60
2019-05-18T02:32:40.175Z,31.27
2019-05-18T02:35:11.412Z,29.03
2019-05-18T02:37:42.521Z,31.53
2019-05-18T02:40:13.756Z,27.13
2019-05-18T02:42:44.889Z,25.10
2019-05-18T02:45:16.133Z,25.33
2019-05-18T02:47:47.271Z,26.63
2019-05-18T02:50:18.892Z,28.00
2019-05-18T02:52:49.959Z,26.20
2019-05-18T02:55:21.055Z,27.17
2019-05-18T02:57:52.180Z,27.00
2019-05-18T03:00:23.385Z,26.60
2019-05-18T03:02:54.503Z,28.03
2019-05-18T03:05:25.701Z,28.53
2019-05-18T03:07:57.340Z,29.00
2019-05-18T03:10:28.567Z,27.23
2019-05-18T03:12:59.629Z,27.40
2019-05-18T03:15:30.882Z,28.43
2019-05-18T03:18:02.285Z,28.60
2019-05-18T03:20:33.478Z,25.97
2019-05-18T03:23:04.608Z,24.93
2019-05-18T03:25:35.738Z,24.47
2019-05-18T03:28:06.837Z,23.83
2019-05-18T03:30:37.942Z,23.20
2019-05-18T03:33:09.012Z,23.23
2019-05-18T03:35:40.080Z,21.67
2019-05-18T03:38:11.202Z,22.97
2019-05-18T03:40:42.254Z,24.50
2019-05-18T03:43:13.407Z,25.50
2019-05-18T03:45:44.537Z,24.73
2019-05-18T03:48:15.692Z,25.43
2019-05-18T03:50:46.797Z,25.23
2019-05-18T03:53:18.471Z,25.00
2019-05-18T03:55:49.679Z,27.07
2019-05-18T03:58:20.737Z,26.37
2019-05-18T04:00:51.856Z,23.97
2019-05-18T04:03:22.969Z,23.50
2019-05-18T04:05:55.122Z,23.90
2019-05-18T04:08:26.223Z,24.93
2019-05-18T04:10:57.333Z,23.37
2019-05-18T04:13:28.592Z,22.37
2019-05-18T04:15:59.653Z,21.50
2019-05-18T04:18:30.685Z,21.47
2019-05-18T04:21:06.334Z,21.83
2019-05-18T04:23:37.442Z,23.13
2019-05-18T04:26:08.601Z,23.23
2019-05-18T04:28:39.686Z,23.47
2019-05-18T04:31:10.767Z,26.67
2019-05-18T04:33:41.859Z,27.47
2019-05-18T04:36:13.105Z,30.03
2019-05-18T04:38:45.196Z,29.30
2019-05-18T04:41:16.277Z,29.50
2019-05-18T04:43:47.396Z,29.93
2019-05-18T04:46:18.560Z,34.27
2019-05-18T04:48:49.722Z,33.83
2019-05-18T04:51:20.830Z,36.80
2019-05-18T04:53:51.979Z,39.83
2019-05-18T04:56:23.127Z,42.50
2019-05-18T04:58:54.408Z,43.90
2019-05-18T05:01:25.582Z,46.00
2019-05-18T05:03:56.623Z,46.23
2019-05-18T05:06:27.783Z,52.13
2019-05-18T05:08:58.874Z,49.80
2019-05-18T05:11:29.981Z,51.13
2019-05-18T05:14:01.070Z,48.77
2019-05-18T05:16:32.177Z,49.37
2019-05-18T05:19:03.347Z,46.87
2019-05-18T05:21:34.388Z,45.40
2019-05-18T05:24:05.616Z,43.73
2019-05-18T05:26:39.426Z,41.13
2019-05-18T05:29:09.620Z,36.20
2019-05-18T05:31:40.841Z,36.27
2019-05-18T05:34:12.250Z,34.37
2019-05-18T05:36:43.345Z,33.37
2019-05-18T05:39:14.495Z,32.83
2019-05-18T05:41:45.753Z,30.00
2019-05-18T05:44:16.970Z,30.83
2019-05-18T05:46:48.106Z,27.17
2019-05-18T05:49:19.205Z,26.80
2019-05-18T05:51:50.401Z,27.17
2019-05-18T05:54:21.490Z,26.53
2019-05-18T05:56:52.721Z,26.13
2019-05-18T05:59:25.028Z,26.07
2019-05-18T06:01:56.127Z,25.80
2019-05-18T06:04:27.387Z,25.73
2019-05-18T06:06:58.531Z,22.17
2019-05-18T06:09:29.780Z,19.50
2019-05-18T06:12:00.972Z,18.20
2019-05-18T06:14:32.143Z,18.20
2019-05-18T06:17:07.902Z,16.77
2019-05-18T06:19:37.554Z,18.33
2019-05-18T06:22:08.646Z,16.70
2019-05-18T06:24:39.902Z,15.93
2019-05-18T06:27:10.995Z,15.03
2019-05-18T06:29:42.174Z,16.27
2019-05-18T06:32:13.279Z,16.27
2019-05-18T06:34:44.437Z,16.20
2019-05-18T06:37:15.528Z,16.53
2019-05-18T06:39:46.669Z,15.83
2019-05-18T06:42:17.760Z,15.75
2019-05-18T06:44:48.947Z,14.37
2019-05-18T06:47:20.179Z,13.85
2019-05-18T06:49:51.426Z,11.77
2019-05-18T06:52:22.570Z,10.08
2019-05-18T06:54:53.725Z,10.32
2019-05-18T06:57:26.265Z,9.35
2019-05-18T06:59:57.593Z,9.13
2019-05-18T07:02:28.681Z,8.03
2019-05-18T07:04:59.824Z,8.05
2019-05-18T07:07:31.135Z,8.55
2019-05-18T07:10:02.386Z,9.28
2019-05-18T07:12:33.565Z,8.45
2019-05-18T07:15:05.612Z,8.43
2019-05-18T07:17:36.794Z,8.93
2019-05-18T07:20:08.857Z,9.90
2019-05-18T07:22:40.312Z,8.80
2019-05-18T07:25:11.714Z,8.68
2019-05-18T07:27:43.349Z,9.45
2019-05-18T07:30:16.673Z,8.98
2019-05-18T07:32:48.152Z,8.55
2019-05-18T07:35:20.653Z,8.60
2019-05-18T07:37:51.922Z,8.90
2019-05-18T07:40:23.568Z,9.68
2019-05-18T07:42:55.382Z,8.73
2019-05-18T07:45:26.904Z,8.08
2019-05-18T07:47:58.631Z,8.10
2019-05-18T07:50:30.156Z,8.88
2019-05-18T07:53:04.111Z,7.35
2019-05-18T07:55:35.955Z,8.23
2019-05-18T07:58:07.638Z,8.23
2019-05-18T08:00:39.307Z,8.13
2019-05-18T08:03:10.590Z,8.43
2019-05-18T08:05:42.458Z,7.33
2019-05-18T08:08:13.876Z,8.20
2019-05-18T08:10:45.248Z,8.35
2019-05-18T08:13:16.635Z,7.53
2019-05-18T08:15:48.143Z,6.55
2019-05-18T08:18:19.451Z,6.47
2019-05-18T08:20:50.643Z,7.28
2019-05-18T08:23:21.987Z,6.37
2019-05-18T08:25:53.331Z,7.03
2019-05-18T08:28:24.801Z,6.97
2019-05-18T08:30:56.045Z,7.17
2019-05-18T08:33:27.349Z,6.30
2019-05-18T08:35:58.649Z,6.37
2019-05-18T08:38:30.169Z,6.80
2019-05-18T08:41:01.808Z,6.33
2019-05-18T08:43:33.439Z,6.62
2019-05-18T08:46:05.266Z,6.30
2019-05-18T08:48:37.267Z,6.87
2019-05-18T08:51:08.542Z,6.78
2019-05-18T08:53:40.159Z,6.83
2019-05-18T08:56:11.718Z,7.05
2019-05-18T08:58:43.088Z,6.37
2019-05-18T09:01:15.465Z,6.97
2019-05-18T09:03:46.870Z,7.08
2019-05-18T09:06:18.155Z,6.35
2019-05-18T09:08:49.380Z,6.35
2019-05-18T09:11:20.825Z,5.75
2019-05-18T09:13:51.973Z,6.75
2019-05-18T09:16:23.459Z,6.78
2019-05-18T09:18:54.755Z,6.53
2019-05-18T09:21:26.171Z,6.35
2019-05-18T09:23:57.793Z,6.58
2019-05-18T09:26:29.133Z,7.28
2019-05-18T09:29:00.639Z,6.78
2019-05-18T09:31:31.975Z,6.83
2019-05-18T09:34:03.894Z,7.03
2019-05-18T09:36:35.654Z,6.72
2019-05-18T09:39:08.412Z,6.30
2019-05-18T09:41:39.835Z,7.22
2019-05-18T09:44:11.439Z,7.60
2019-05-18T09:46:42.870Z,7.42
2019-05-18T09:49:14.201Z,6.72
2019-05-18T09:51:46.484Z,6.37
2019-05-18T09:54:18.686Z,7.42
2019-05-18T09:56:50.608Z,6.92
2019-05-18T09:59:22.335Z,7.70
2019-05-18T10:01:54.835Z,6.97
2019-05-18T10:04:26.262Z,6.53
2019-05-18T10:06:57.868Z,7.10
2019-05-18T10:09:38.500Z,7.20
2019-05-18T10:12:02.306Z,7.22
2019-05-18T10:14:33.841Z,7.75
2019-05-18T10:17:05.213Z,7.50
2019-05-18T10:19:36.748Z,7.72
2019-05-18T10:22:08.042Z,6.65
2019-05-18T10:24:39.608Z,8.05
2019-05-18T10:27:11.217Z,7.30
2019-05-18T10:29:42.515Z,6.83
2019-05-18T10:32:14.192Z,7.33
2019-05-18T10:34:45.505Z,7.20
2019-05-18T10:37:16.584Z,7.28
2019-05-18T10:39:47.726Z,7.80
2019-05-18T10:42:18.856Z,6.87
2019-05-18T10:44:51.131Z,6.60
2019-05-18T10:47:22.312Z,6.45
2019-05-18T10:49:53.454Z,6.10
2019-05-18T10:52:25.724Z,5.10
2019-05-18T10:54:56.870Z,6.80
2019-05-18T10:57:28.174Z,10.43
2019-05-18T10:59:59.492Z,7.65
2019-05-18T11:02:30.701Z,7.58
2019-05-18T11:05:01.837Z,6.80
2019-05-18T11:07:33.158Z,6.83
2019-05-18T11:10:05.229Z,7.10
2019-05-18T11:12:37.213Z,6.58
2019-05-18T11:15:09.848Z,6.95
2019-05-18T11:17:41.369Z,6.50
2019-05-18T11:20:13.819Z,7.42
2019-05-18T11:22:45.031Z,6.65
2019-05-18T11:25:16.675Z,6.53
2019-05-18T11:27:47.770Z,5.47
2019-05-18T11:30:19.160Z,6.28
2019-05-18T11:32:50.229Z,6.42
2019-05-18T11:35:22.496Z,6.80
2019-05-18T11:37:53.669Z,7.05
2019-05-18T11:40:24.882Z,6.60
2019-05-18T11:42:56.013Z,6.58
2019-05-18T11:45:27.322Z,7.00
2019-05-18T11:47:58.514Z,7.17
2019-05-18T11:50:29.732Z,6.62
2019-05-18T11:53:00.915Z,7.15
2019-05-18T11:55:32.038Z,7.40
2019-05-18T11:58:03.123Z,7.50
2019-05-18T12:00:34.524Z,6.67
2019-05-18T12:03:05.673Z,6.62
2019-05-18T12:05:36.887Z,6.58
2019-05-18T12:08:08.061Z,6.72
2019-05-18T12:10:39.243Z,6.47
2019-05-18T12:13:10.734Z,16.10
2019-05-18T12:15:41.894Z,7.72
2019-05-18T12:18:13.030Z,7.00
2019-05-18T12:20:44.308Z,7.03
2019-05-18T12:23:16.643Z,6.83
2019-05-18T12:25:50.647Z,6.90
2019-05-18T12:28:20.723Z,7.03
2019-05-18T12:30:51.969Z,6.47
2019-05-18T12:33:24.638Z,6.42
2019-05-18T12:36:07.763Z,6.72
2019-05-18T12:38:47.061Z,6.87
2019-05-18T12:41:31.111Z,6.53
2019-05-18T12:44:14.952Z,8.30
2019-05-18T12:46:46.140Z,6.72
2019-05-18T12:49:17.287Z,7.08
2019-05-18T12:51:48.599Z,11.63
2019-05-18T12:54:29.255Z,6.42
2019-05-18T12:56:52.768Z,6.58
2019-05-18T12:59:25.060Z,6.72
2019-05-18T13:01:56.641Z,6.78
2019-05-18T13:04:28.093Z,7.25
2019-05-18T13:06:59.435Z,6.90
2019-05-18T13:09:31.150Z,7.28
2019-05-18T13:12:02.881Z,8.13
2019-05-18T13:14:34.546Z,7.72
2019-05-18T13:17:06.270Z,8.00
2019-05-18T13:19:37.658Z,9.03
2019-05-18T13:22:08.887Z,7.45
2019-05-18T13:24:45.481Z,7.92
2019-05-18T13:27:13.038Z,15.00
2019-05-18T13:29:45.228Z,7.20
2019-05-18T13:32:16.537Z,13.25
2019-05-18T13:34:48.119Z,28.05
2019-05-18T13:37:19.381Z,6.37
2019-05-18T13:39:50.666Z,6.58
2019-05-18T13:42:21.883Z,7.50
2019-05-18T13:44:53.101Z,8.00
2019-05-18T13:47:24.343Z,9.20
2019-05-18T13:49:58.254Z,9.33
2019-05-18T13:52:28.527Z,7.67
2019-05-18T13:55:04.322Z,10.23
2019-05-18T13:57:32.578Z,6.62
2019-05-18T14:00:03.791Z,6.72
2019-05-18T14:02:35.149Z,7.30
2019-05-18T14:05:07.072Z,8.60
2019-05-18T14:07:38.382Z,7.10
2019-05-18T14:10:12.590Z,7.47
2019-05-18T14:12:44.131Z,7.05
2019-05-18T14:15:15.518Z,7.05
2019-05-18T14:17:46.676Z,6.83
2019-05-18T14:20:17.946Z,7.10
2019-05-18T14:22:49.204Z,15.23
2019-05-18T14:25:20.501Z,9.80
2019-05-18T14:27:51.657Z,7.03
2019-05-18T14:30:22.965Z,6.05
2019-05-18T14:32:54.023Z,7.33
2019-05-18T14:35:25.194Z,7.25
2019-05-18T14:37:56.300Z,5.80
2019-05-18T14:40:27.395Z,5.70
2019-05-18T14:42:58.556Z,7.90
2019-05-18T14:45:29.666Z,5.92
2019-05-18T14:48:01.513Z,5.92
2019-05-18T14:50:32.811Z,5.67
2019-05-18T14:53:04.042Z,6.33
2019-05-18T14:55:35.360Z,5.90
2019-05-18T14:58:06.591Z,6.28
2019-05-18T15:00:37.861Z,6.20
2019-05-18T15:03:09.616Z,6.28
2019-05-18T15:05:40.849Z,5.83
2019-05-18T15:08:13.813Z,6.15
2019-05-18T15:10:45.053Z,5.53
2019-05-18T15:13:16.216Z,5.53
2019-05-18T15:15:47.508Z,5.70
2019-05-18T15:18:18.710Z,5.47
2019-05-18T15:20:50.936Z,4.95
2019-05-18T15:23:22.261Z,5.20
2019-05-18T15:25:53.363Z,5.75
2019-05-18T15:28:24.507Z,5.35
2019-05-18T15:30:55.688Z,8.30
2019-05-18T15:33:26.772Z,6.53
2019-05-18T15:35:57.901Z,5.15
2019-05-18T15:38:29.288Z,5.15
2019-05-18T15:41:00.491Z,5.10
2019-05-18T15:43:31.546Z,5.40
2019-05-18T15:46:02.717Z,7.87
2019-05-18T15:48:34.019Z,5.70
2019-05-18T15:51:05.431Z,6.25
2019-05-18T15:53:36.518Z,8.65
2019-05-18T15:56:07.706Z,8.23
2019-05-18T15:58:38.869Z,7.65
2019-05-18T16:13:03.167Z,5.78
2019-05-18T16:15:35.459Z,6.28
2019-05-18T16:18:06.850Z,8.50
2019-05-18T16:20:38.064Z,5.87
2019-05-18T16:23:09.344Z,5.62
2019-05-18T16:25:40.576Z,5.22
2019-05-18T16:28:11.834Z,5.70
2019-05-18T16:30:47.321Z,4.87
2019-05-18T16:33:18.499Z,5.25
2019-05-18T16:35:49.861Z,5.15
2019-05-18T16:38:21.048Z,4.60
2019-05-18T16:40:52.226Z,5.20
2019-05-18T16:43:23.376Z,4.92
2019-05-18T16:45:54.547Z,5.45
2019-05-18T16:48:25.644Z,5.37
2019-05-18T16:50:56.910Z,5.47
2019-05-18T16:53:28.146Z,5.55
2019-05-18T16:55:59.478Z,5.15
2019-05-18T16:58:30.578Z,4.97
2019-05-18T17:01:01.868Z,5.08
2019-05-18T17:03:33.502Z,4.87
2019-05-18T17:06:06.080Z,5.50
2019-05-18T17:08:37.331Z,5.05
2019-05-18T17:11:08.507Z,5.10
2019-05-18T17:13:39.890Z,5.97
2019-05-18T17:16:11.104Z,5.60
2019-05-18T17:18:42.229Z,4.97
2019-05-18T17:21:13.262Z,5.12
2019-05-18T17:23:44.361Z,4.92
2019-05-18T17:26:16.544Z,5.17
2019-05-18T17:28:47.726Z,4.87
2019-05-18T17:31:18.906Z,4.92
2019-05-18T17:33:50.157Z,4.42
2019-05-18T17:36:21.616Z,4.33
2019-05-18T17:38:52.780Z,4.83
2019-05-18T17:41:23.974Z,3.92
2019-05-18T17:43:56.046Z,4.30
2019-05-18T17:46:27.650Z,4.60
2019-05-18T17:49:00.552Z,4.75
2019-05-18T17:51:32.844Z,4.65
2019-05-18T17:54:20.731Z,4.83
2019-05-18T17:57:07.467Z,5.45
2019-05-18T17:59:26.241Z,5.28
2019-05-18T18:02:00.005Z,5.15
2019-05-18T18:04:38.801Z,5.30
2019-05-18T18:07:15.272Z,5.40
2019-05-18T18:09:49.363Z,5.97
2019-05-18T18:12:20.847Z,6.10
2019-05-18T18:14:52.503Z,5.55
2019-05-18T18:17:26.019Z,6.10
2019-05-18T18:19:58.460Z,6.90
2019-05-18T18:22:30.516Z,5.87
2019-05-18T18:25:01.888Z,5.83
2019-05-18T18:27:33.317Z,6.17
2019-05-18T18:30:05.548Z,7.15
2019-05-18T18:32:37.346Z,8.35
2019-05-18T18:35:08.951Z,8.38
2019-05-18T18:37:40.595Z,8.73
2019-05-18T18:40:12.085Z,7.95
2019-05-18T18:42:43.495Z,7.80
2019-05-18T18:45:16.716Z,7.75
2019-05-18T18:47:48.260Z,7.85
2019-05-18T18:50:20.461Z,6.95
2019-05-18T18:52:53.078Z,8.08
2019-05-18T18:55:24.509Z,8.45
2019-05-18T18:57:55.885Z,8.80
2019-05-18T19:00:27.184Z,7.42
2019-05-18T19:03:01.273Z,6.35
2019-05-18T19:05:32.715Z,7.30
2019-05-18T19:08:08.430Z,6.80
2019-05-18T19:10:49.095Z,7.08
2019-05-18T19:13:21.906Z,6.58
2019-05-18T19:15:53.276Z,5.47
2019-05-18T19:18:31.519Z,6.15
2019-05-18T19:21:14.534Z,6.20
2019-05-18T19:23:47.877Z,5.63
2019-05-18T19:26:23.659Z,6.12
2019-05-18T19:28:56.130Z,6.50
2019-05-18T19:31:32.088Z,6.10
2019-05-18T19:34:03.201Z,6.10
2019-05-18T19:36:34.881Z,6.40
2019-05-18T19:39:08.602Z,5.90
2019-05-18T19:41:39.953Z,6.27
2019-05-18T19:44:11.306Z,6.73
2019-05-18T19:46:42.791Z,7.03
2019-05-18T19:49:14.169Z,5.80
2019-05-18T19:51:45.450Z,6.40
2019-05-18T19:54:16.600Z,5.47
2019-05-18T19:56:48.033Z,6.67
2019-05-18T19:59:24.057Z,6.97
2019-05-18T20:01:55.055Z,6.37
2019-05-18T20:04:26.443Z,6.80
2019-05-18T20:06:59.033Z,6.87
2019-05-18T20:09:30.359Z,6.53
2019-05-18T20:12:01.873Z,7.37
2019-05-18T20:14:33.658Z,7.17
2019-05-18T20:17:05.162Z,6.67
2019-05-18T20:19:39.743Z,7.13
2019-05-18T20:22:09.637Z,7.00
2019-05-18T20:24:41.371Z,8.73
2019-05-18T20:27:12.796Z,8.37
2019-05-18T20:29:44.204Z,8.07
2019-05-18T20:32:15.531Z,7.60
2019-05-18T20:34:46.841Z,9.10
2019-05-18T20:37:18.063Z,7.70
2019-05-18T20:39:49.245Z,7.63
2019-05-18T20:42:20.466Z,7.33
2019-05-18T20:44:51.736Z,7.27
2019-05-18T20:47:23.043Z,7.17
2019-05-18T20:49:54.527Z,6.90
2019-05-18T20:52:25.690Z,7.33
2019-05-18T20:54:56.884Z,7.23
2019-05-18T20:57:28.032Z,6.70
2019-05-18T21:00:00.747Z,7.07
2019-05-18T21:02:31.997Z,6.60
2019-05-18T21:05:03.335Z,7.13
2019-05-18T21:07:34.561Z,7.77
2019-05-18T21:10:06.205Z,8.30
2019-05-18T21:12:37.498Z,11.07
2019-05-18T21:15:10.342Z,10.03
2019-05-18T21:17:41.557Z,8.93
2019-05-18T21:20:13.206Z,9.63
2019-05-18T21:22:44.547Z,8.40
2019-05-18T21:25:16.191Z,7.67
2019-05-18T21:27:48.267Z,8.93
2019-05-18T21:30:20.293Z,9.23
2019-05-18T21:32:51.587Z,8.00
2019-05-18T21:35:23.333Z,8.50
2019-05-18T21:37:54.659Z,9.70
2019-05-18T21:40:26.433Z,10.87
2019-05-18T21:42:58.880Z,9.20
2019-05-18T21:45:30.494Z,9.67
2019-05-18T21:48:01.872Z,10.43
2019-05-18T21:50:33.270Z,9.37
2019-05-18T21:53:04.541Z,10.03
2019-05-18T21:55:35.711Z,9.57
2019-05-18T21:58:06.915Z,10.50
2019-05-18T22:00:40.520Z,10.30
2019-05-18T22:03:13.575Z,11.33
2019-05-18T22:05:44.751Z,11.67
2019-05-18T22:08:15.968Z,10.90
2019-05-18T22:10:48.384Z,13.73
2019-05-18T22:13:19.573Z,11.87
2019-05-18T22:15:50.803Z,12.97
2019-05-18T22:18:24.849Z,16.07
2019-05-18T22:20:55.836Z,15.20
2019-05-18T22:23:26.879Z,17.17
2019-05-18T22:25:57.987Z,14.50
2019-05-18T22:28:29.099Z,17.90
2019-05-18T22:31:00.247Z,18.23
2019-05-18T22:33:31.316Z,20.40
2019-05-18T22:36:02.376Z,22.73
2019-05-18T22:38:33.555Z,19.03
2019-05-18T22:41:04.649Z,18.10
2019-05-18T22:43:35.812Z,17.70
2019-05-18T22:46:06.886Z,19.30
2019-05-18T22:48:41.149Z,18.07
2019-05-18T22:51:10.847Z,16.83
2019-05-18T22:53:41.962Z,17.43
2019-05-18T22:56:13.022Z,19.67
2019-05-18T22:58:44.063Z,18.73
2019-05-18T23:01:15.428Z,22.83
2019-05-18T23:03:46.735Z,21.33
2019-05-18T23:06:18.097Z,20.70
2019-05-18T23:08:49.519Z,19.13
2019-05-18T23:11:20.653Z,18.23
2019-05-18T23:13:51.864Z,17.17
2019-05-18T23:16:23.167Z,18.40
2019-05-18T23:18:57.201Z,18.30
2019-05-18T23:21:27.409Z,21.33
2019-05-18T23:23:58.598Z,19.17
2019-05-18T23:26:29.822Z,19.30
2019-05-18T23:29:01.158Z,18.80
2019-05-18T23:31:32.400Z,19.83
2019-05-18T23:34:03.714Z,18.83
2019-05-18T23:36:35.036Z,17.30
2019-05-18T23:39:07.529Z,15.80
2019-05-18T23:41:38.736Z,16.23
2019-05-18T23:44:09.903Z,14.33
2019-05-18T23:46:42.194Z,15.03
2019-05-18T23:49:13.602Z,15.27
2019-05-18T23:51:44.856Z,13.37
2019-05-18T23:54:15.973Z,14.53
2019-05-18T23:56:47.043Z,16.30
2019-05-18T23:59:19.323Z,15.50
